Pagina principale
METAR-TAF:

METAR-TAF

Aeroporti :

Meiringen, Svizzera

latitudine: 46-44-25N, longitudine: 8-06-36E, altezza: 577 m

Osservazione

Il bollettino è stato emesso 21 minuti fa, alle 17:20 UTC
Vento 7 kt da nord-est, variando fra nord/nord-est e est
Temperature 19°C
Umidità 49%
Pressione 1016 hPa
Visibilità 10 km o più
Nubi sparse ad un'altezza di 8000 ft

METAR: LSMM 131720Z AUTO 04007KT 020V080 9999NDV SCT080 19/08 Q1016 RMK

Ora: 19:41 (17:41 UTC)


TAF: mancante

Osservazioni e previsioni meteorologiche di più di 4000 aeroporti (messaggi METAR e TAF).

Le stazioni disponibili sono rappresentate dai dischi gialli e rossi sulla carta.

Puntare il mouse per vedere il nome della stazione.

Clicca sopra per visualizzare le osservazioni e previsioni meteorologiche.

Per cambiare la mappa : fare clic sui pulsanti verdi con una croce nera per ingrandire, il pulsante verde con un trattino per diminuire, o sulla freccia verde per le mappe adiacenti.


METAR-TAF: